PWSweather.com
Personal Weather Stations
Station Observations
KTXDECATUR
Wildwood, Decatur, TX 76234

WildwoodDecatur, TX 76234

Lat: 33.2634, Lon: -97.6651

Elevation: 800

Station Type: Davis Vantage Pro 2

http://weather.wildwoodnaturist.com

Latest ConditionsUpdated 4:20:00 PM CDT Thursday, Jul 2, 2015
Currently Today's Max Today's Min Today's Average
Temperature 88.6°F31.4°C 89.4°F31.9°C 72.3°F22.4°C 79.9°F26.6°C
Dew Point 73.0°F22.8°C 75.0°F23.9°C 68.2°F20.1°C 71.3°F21.8°C
Winds 11.5 mph S18.5 kmh S 17.3 mph SSW27.8 kmh SSW - 8.2 mph 13.2 kmh
Wind Gusts 21.9 mph35.2 kmh 21.9 mph35.2 kmh - -
Humidity 60% 88% 56% 76%
Pressure 29.85 in1010.8 mb 29.93 in1013.5 mb 29.84 in1010.5 mb -
Hour Temp Dew Point Humidity Winds Wind Gusts Pressure Precip Precip Rate Daily Precip Total
04:20 PM 88.6°F31.4°C 73.0°F22.8°C 60% 11.5 mph S18.5 kmh S 21.9 mph35.2 kmh 29.85 in1010.8 mb - 0.00 in0.0 mm 0.00 in0.0 mm
04:15 PM 88.6°F31.4°C 72.4°F22.4°C 59% 10.4 mph S16.7 kmh S 12.7 mph20.4 kmh 29.85 in1010.8 mb - 0.00 in0.0 mm 0.00 in0.0 mm
04:10 PM 88.9°F31.6°C 73.2°F22.9°C 60% 15.0 mph S24.1 kmh S 17.3 mph27.8 kmh 29.85 in1010.8 mb - 0.00 in0.0 mm 0.00 in0.0 mm
04:00 PM 89.2°F31.8°C 72.4°F22.4°C 58% 12.7 mph S20.4 kmh S 16.1 mph25.9 kmh 29.85 in1010.8 mb - 0.00 in0.0 mm 0.00 in0.0 mm
03:50 PM 89.4°F31.9°C 72.7°F22.6°C 58% 10.4 mph S16.7 kmh S 16.1 mph25.9 kmh 29.85 in1010.8 mb - 0.00 in0.0 mm 0.00 in0.0 mm
03:45 PM 88.9°F31.6°C 72.2°F22.3°C 58% 10.4 mph SW16.7 kmh SW 16.1 mph25.9 kmh 29.85 in1010.8 mb - 0.00 in0.0 mm 0.00 in0.0 mm
03:40 PM 88.8°F31.6°C 71.1°F21.7°C 56% 13.8 mph SW22.2 kmh SW 13.8 mph22.2 kmh 29.85 in1010.8 mb - 0.00 in0.0 mm 0.00 in0.0 mm
03:30 PM 89.4°F31.9°C 73.2°F22.9°C 59% 10.4 mph SSW16.7 kmh SSW 13.8 mph22.2 kmh 29.85 in1010.8 mb - 0.00 in0.0 mm 0.00 in0.0 mm
03:20 PM 89.4°F31.9°C 72.2°F22.3°C 57% 9.2 mph SW14.8 kmh SW 8.1 mph13.0 kmh 29.85 in1010.8 mb - 0.00 in0.0 mm 0.00 in0.0 mm
03:15 PM 89.1°F31.7°C 71.9°F22.2°C 57% 11.5 mph S18.5 kmh S 13.8 mph22.2 kmh 29.85 in1010.8 mb - 0.00 in0.0 mm 0.00 in0.0 mm
03:10 PM 89.1°F31.7°C 72.4°F22.4°C 58% 9.2 mph SW14.8 kmh SW 11.5 mph18.5 kmh 29.85 in1010.8 mb - 0.00 in0.0 mm 0.00 in0.0 mm
03:00 PM 88.9°F31.6°C 73.7°F23.2°C 61% 17.3 mph SSW27.8 kmh SSW 18.4 mph29.6 kmh 29.85 in1010.8 mb - 0.00 in0.0 mm 0.00 in0.0 mm
02:50 PM 88.8°F31.6°C 73.6°F23.1°C 61% 11.5 mph SSW18.5 kmh SSW 13.8 mph22.2 kmh 29.86 in1011.2 mb - 0.00 in0.0 mm 0.00 in0.0 mm
02:45 PM 88.9°F31.6°C 73.7°F23.2°C 61% 11.5 mph S18.5 kmh S 21.9 mph35.2 kmh 29.86 in1011.2 mb - 0.00 in0.0 mm 0.00 in0.0 mm
02:40 PM 88.5°F31.4°C 73.4°F23.0°C 61% 5.8 mph SSW9.3 kmh SSW 8.1 mph13.0 kmh 29.86 in1011.2 mb - 0.00 in0.0 mm 0.00 in0.0 mm
02:30 PM 88.4°F31.3°C 73.7°F23.2°C 62% 11.5 mph SSW18.5 kmh SSW 17.3 mph27.8 kmh 29.86 in1011.2 mb - 0.00 in0.0 mm 0.00 in0.0 mm
02:20 PM 88.1°F31.2°C 74.0°F23.3°C 63% 11.5 mph SSW18.5 kmh SSW 15.0 mph24.1 kmh 29.86 in1011.2 mb - 0.00 in0.0 mm 0.00 in0.0 mm
02:15 PM 87.6°F30.9°C 73.0°F22.8°C 62% 11.5 mph S18.5 kmh S 16.1 mph25.9 kmh 29.86 in1011.2 mb - 0.00 in0.0 mm 0.00 in0.0 mm
02:10 PM 87.7°F30.9°C 73.1°F22.8°C 62% 9.2 mph SW14.8 kmh SW 16.1 mph25.9 kmh 29.86 in1011.2 mb - 0.00 in0.0 mm 0.00 in0.0 mm
02:00 PM 87.6°F30.9°C 73.9°F23.3°C 64% 10.4 mph SSW16.7 kmh SSW 16.1 mph25.9 kmh 29.86 in1011.2 mb - 0.00 in0.0 mm 0.00 in0.0 mm
01:50 PM 87.0°F30.6°C 72.9°F22.7°C 63% 11.5 mph SW18.5 kmh SW 10.4 mph16.7 kmh 29.87 in1011.5 mb - 0.00 in0.0 mm 0.00 in0.0 mm
01:45 PM 87.1°F30.6°C 73.0°F22.8°C 63% 11.5 mph S18.5 kmh S 13.8 mph22.2 kmh 29.87 in1011.5 mb - 0.00 in0.0 mm 0.00 in0.0 mm
01:40 PM 87.2°F30.7°C 73.5°F23.1°C 64% 9.2 mph SW14.8 kmh SW 12.7 mph20.4 kmh 29.87 in1011.5 mb - 0.00 in0.0 mm 0.00 in0.0 mm
01:30 PM 86.9°F30.5°C 72.8°F22.7°C 63% 13.8 mph SW22.2 kmh SW 19.6 mph31.5 kmh 29.87 in1011.5 mb - 0.00 in0.0 mm 0.00 in0.0 mm
01:20 PM 87.3°F30.7°C 73.6°F23.1°C 64% 12.7 mph SW20.4 kmh SW 13.8 mph22.2 kmh 29.88 in1011.9 mb - 0.00 in0.0 mm 0.00 in0.0 mm
01:15 PM 87.3°F30.7°C 73.6°F23.1°C 64% 15.0 mph SSW24.1 kmh SSW 16.1 mph25.9 kmh 29.88 in1011.9 mb - 0.00 in0.0 mm 0.00 in0.0 mm
01:10 PM 86.8°F30.4°C 73.6°F23.1°C 65% 12.7 mph SW20.4 kmh SW 16.1 mph25.9 kmh 29.88 in1011.9 mb - 0.00 in0.0 mm 0.00 in0.0 mm
01:00 PM 86.3°F30.2°C 73.1°F22.8°C 65% 10.4 mph SW16.7 kmh SW 12.7 mph20.4 kmh 29.88 in1011.9 mb - 0.00 in0.0 mm 0.00 in0.0 mm
12:50 PM 86.3°F30.2°C 73.6°F23.1°C 66% 5.8 mph SW9.3 kmh SW 8.1 mph13.0 kmh 29.89 in1012.2 mb - 0.00 in0.0 mm 0.00 in0.0 mm
12:45 PM 86.8°F30.4°C 75.0°F23.9°C 68% 8.1 mph SW13.0 kmh SW 12.7 mph20.4 kmh 29.89 in1012.2 mb - 0.00 in0.0 mm 0.00 in0.0 mm
12:40 PM 86.3°F30.2°C 74.0°F23.3°C 67% 12.7 mph SW20.4 kmh SW 18.4 mph29.6 kmh 29.89 in1012.2 mb - 0.00 in0.0 mm 0.00 in0.0 mm
12:30 PM 85.8°F29.9°C 73.6°F23.1°C 67% 12.7 mph S20.4 kmh S 16.1 mph25.9 kmh 29.89 in1012.2 mb - 0.00 in0.0 mm 0.00 in0.0 mm
12:20 PM 86.0°F30.0°C 72.4°F22.4°C 64% 12.7 mph SW20.4 kmh SW 13.8 mph22.2 kmh 29.89 in1012.2 mb - 0.00 in0.0 mm 0.00 in0.0 mm
12:15 PM 86.0°F30.0°C 73.4°F23.0°C 66% 13.8 mph SW22.2 kmh SW 18.4 mph29.6 kmh 29.89 in1012.2 mb - 0.00 in0.0 mm 0.00 in0.0 mm
12:10 PM 85.9°F29.9°C 73.7°F23.2°C 67% 10.4 mph SW16.7 kmh SW 13.8 mph22.2 kmh 29.89 in1012.2 mb - 0.00 in0.0 mm 0.00 in0.0 mm
12:00 PM 85.3°F29.6°C 73.1°F22.8°C 67% 8.1 mph SW13.0 kmh SW 10.4 mph16.7 kmh 29.89 in1012.2 mb - 0.00 in0.0 mm 0.00 in0.0 mm
11:50 AM 84.7°F29.3°C 72.5°F22.5°C 67% 11.5 mph SSW18.5 kmh SSW 13.8 mph22.2 kmh 29.89 in1012.2 mb - 0.00 in0.0 mm 0.00 in0.0 mm
11:45 AM 84.4°F29.1°C 72.3°F22.4°C 67% 12.7 mph WSW20.4 kmh WSW 13.8 mph22.2 kmh 29.90 in1012.5 mb - 0.00 in0.0 mm 0.00 in0.0 mm
11:40 AM 84.5°F29.2°C 72.4°F22.4°C 67% 13.8 mph SW22.2 kmh SW 18.4 mph29.6 kmh 29.90 in1012.5 mb - 0.00 in0.0 mm 0.00 in0.0 mm
11:30 AM 84.2°F29.0°C 72.9°F22.7°C 69% 11.5 mph SW18.5 kmh SW 13.8 mph22.2 kmh 29.90 in1012.5 mb - 0.00 in0.0 mm 0.00 in0.0 mm
11:20 AM 84.1°F28.9°C 72.8°F22.7°C 69% 11.5 mph S18.5 kmh S 12.7 mph20.4 kmh 29.90 in1012.5 mb - 0.00 in0.0 mm 0.00 in0.0 mm
11:15 AM 84.3°F29.1°C 73.4°F23.0°C 70% 11.5 mph SW18.5 kmh SW 19.6 mph31.5 kmh 29.90 in1012.5 mb - 0.00 in0.0 mm 0.00 in0.0 mm
11:10 AM 84.1°F28.9°C 73.6°F23.1°C 71% 12.7 mph S20.4 kmh S 15.0 mph24.1 kmh 29.90 in1012.5 mb - 0.00 in0.0 mm 0.00 in0.0 mm
11:00 AM 83.6°F28.7°C 73.2°F22.9°C 71% 13.8 mph SW22.2 kmh SW 17.3 mph27.8 kmh 29.90 in1012.5 mb - 0.00 in0.0 mm 0.00 in0.0 mm
10:50 AM 82.9°F28.3°C 72.9°F22.7°C 72% 15.0 mph SW24.1 kmh SW 15.0 mph24.1 kmh 29.90 in1012.5 mb - 0.00 in0.0 mm 0.00 in0.0 mm
10:45 AM 82.6°F28.1°C 72.6°F22.6°C 72% 12.7 mph SW20.4 kmh SW 16.1 mph25.9 kmh 29.91 in1012.9 mb - 0.00 in0.0 mm 0.00 in0.0 mm
10:40 AM 82.4°F28.0°C 72.9°F22.7°C 73% 11.5 mph SW18.5 kmh SW 11.5 mph18.5 kmh 29.91 in1012.9 mb - 0.00 in0.0 mm 0.00 in0.0 mm
10:30 AM 82.1°F27.8°C 72.6°F22.6°C 73% 11.5 mph SSW18.5 kmh SSW 13.8 mph22.2 kmh 29.91 in1012.9 mb - 0.00 in0.0 mm 0.00 in0.0 mm
10:20 AM 81.6°F27.6°C 71.7°F22.1°C 72% 13.8 mph SW22.2 kmh SW 16.1 mph25.9 kmh 29.91 in1012.9 mb - 0.00 in0.0 mm 0.00 in0.0 mm
10:15 AM 81.4°F27.4°C 72.3°F22.4°C 74% 12.7 mph SW20.4 kmh SW 17.3 mph27.8 kmh 29.91 in1012.9 mb - 0.00 in0.0 mm 0.00 in0.0 mm
10:10 AM 81.0°F27.2°C 71.5°F21.9°C 73% 12.7 mph SW20.4 kmh SW 12.7 mph20.4 kmh 29.91 in1012.9 mb - 0.00 in0.0 mm 0.00 in0.0 mm
10:00 AM 80.7°F27.1°C 71.2°F21.8°C 73% 13.8 mph SW22.2 kmh SW 18.4 mph29.6 kmh 29.92 in1013.2 mb - 0.00 in0.0 mm 0.00 in0.0 mm
09:50 AM 80.6°F27.0°C 71.2°F21.8°C 73% 13.8 mph SW22.2 kmh SW 16.1 mph25.9 kmh 29.92 in1013.2 mb - 0.00 in0.0 mm 0.00 in0.0 mm
09:45 AM 80.5°F26.9°C 71.4°F21.9°C 74% 12.7 mph SW20.4 kmh SW 18.4 mph29.6 kmh 29.92 in1013.2 mb - 0.00 in0.0 mm 0.00 in0.0 mm
09:40 AM 80.3°F26.8°C 71.3°F21.8°C 74% 13.8 mph SSW22.2 kmh SSW 16.1 mph25.9 kmh 29.92 in1013.2 mb - 0.00 in0.0 mm 0.00 in0.0 mm
09:30 AM 79.8°F26.6°C 71.5°F21.9°C 76% 11.5 mph SSW18.5 kmh SSW 16.1 mph25.9 kmh 29.92 in1013.2 mb - 0.00 in0.0 mm 0.00 in0.0 mm
09:20 AM 79.1°F26.2°C 71.3°F21.8°C 77% 10.4 mph SW16.7 kmh SW 15.0 mph24.1 kmh 29.92 in1013.2 mb - 0.00 in0.0 mm 0.00 in0.0 mm
09:15 AM 78.7°F25.9°C 71.6°F22.0°C 79% 12.7 mph SW20.4 kmh SW 12.7 mph20.4 kmh 29.92 in1013.2 mb - 0.00 in0.0 mm 0.00 in0.0 mm
09:10 AM 78.2°F25.7°C 71.9°F22.2°C 81% 5.8 mph SW9.3 kmh SW 5.8 mph9.3 kmh 29.93 in1013.5 mb - 0.00 in0.0 mm 0.00 in0.0 mm
09:00 AM 76.5°F24.7°C 71.6°F22.0°C 85% 6.9 mph SW11.1 kmh SW 10.4 mph16.7 kmh 29.92 in1013.2 mb - 0.00 in0.0 mm 0.00 in0.0 mm
08:50 AM 75.2°F24.0°C 70.7°F21.5°C 86% 4.6 mph S7.4 kmh S 6.9 mph11.1 kmh 29.93 in1013.5 mb - 0.00 in0.0 mm 0.00 in0.0 mm
08:45 AM 75.0°F23.9°C 70.5°F21.4°C 86% 2.3 mph SW3.7 kmh SW 3.5 mph5.6 kmh 29.92 in1013.2 mb - 0.00 in0.0 mm 0.00 in0.0 mm
08:40 AM 74.9°F23.8°C 70.8°F21.6°C 87% 1.2 mph SW1.9 kmh SW 3.5 mph5.6 kmh 29.92 in1013.2 mb - 0.00 in0.0 mm 0.00 in0.0 mm
08:30 AM 74.6°F23.7°C 70.5°F21.4°C 87% 2.3 mph SSW3.7 kmh SSW 3.5 mph5.6 kmh 29.91 in1012.9 mb - 0.00 in0.0 mm 0.00 in0.0 mm
08:20 AM 74.3°F23.5°C 70.2°F21.2°C 87% 1.2 mph S1.9 kmh S 3.5 mph5.6 kmh 29.91 in1012.9 mb - 0.00 in0.0 mm 0.00 in0.0 mm
08:15 AM 74.2°F23.4°C 70.1°F21.2°C 87% 3.5 mph SSW5.6 kmh SSW 4.6 mph7.4 kmh 29.91 in1012.9 mb - 0.00 in0.0 mm 0.00 in0.0 mm
08:10 AM 74.0°F23.3°C 69.9°F21.1°C 87% 4.6 mph SSW7.4 kmh SSW 5.8 mph9.3 kmh 29.91 in1012.9 mb - 0.00 in0.0 mm 0.00 in0.0 mm
08:00 AM 73.7°F23.2°C 69.6°F20.9°C 87% 4.6 mph S7.4 kmh S 9.2 mph14.8 kmh 29.90 in1012.5 mb - 0.00 in0.0 mm 0.00 in0.0 mm
07:50 AM 73.6°F23.1°C 69.5°F20.8°C 87% 4.6 mph SSW7.4 kmh SSW 6.9 mph11.1 kmh 29.89 in1012.2 mb - 0.00 in0.0 mm 0.00 in0.0 mm
07:45 AM 73.5°F23.1°C 69.8°F21.0°C 88% 6.9 mph SSW11.1 kmh SSW 8.1 mph13.0 kmh 29.89 in1012.2 mb - 0.00 in0.0 mm 0.00 in0.0 mm
07:40 AM 73.5°F23.1°C 69.4°F20.8°C 87% 5.8 mph SSW9.3 kmh SSW 9.2 mph14.8 kmh 29.89 in1012.2 mb - 0.00 in0.0 mm 0.00 in0.0 mm
07:30 AM 73.5°F23.1°C 69.4°F20.8°C 87% 5.8 mph SSW9.3 kmh SSW 6.9 mph11.1 kmh 29.88 in1011.9 mb - 0.00 in0.0 mm 0.00 in0.0 mm
07:20 AM 73.4°F23.0°C 69.6°F20.9°C 88% 6.9 mph SSW11.1 kmh SSW 6.9 mph11.1 kmh 29.88 in1011.9 mb - 0.00 in0.0 mm 0.00 in0.0 mm
07:15 AM 73.2°F22.9°C 69.4°F20.8°C 88% 8.1 mph S13.0 kmh S 10.4 mph16.7 kmh 29.88 in1011.9 mb - 0.00 in0.0 mm 0.00 in0.0 mm
07:10 AM 72.9°F22.7°C 69.1°F20.6°C 88% 8.1 mph S13.0 kmh S 9.2 mph14.8 kmh 29.89 in1012.2 mb - 0.00 in0.0 mm 0.00 in0.0 mm
07:00 AM 72.5°F22.5°C 68.7°F20.4°C 88% 5.8 mph S9.3 kmh S 6.9 mph11.1 kmh 29.88 in1011.9 mb - 0.00 in0.0 mm 0.00 in0.0 mm
06:50 AM 72.3°F22.4°C 68.5°F20.3°C 88% 4.6 mph SSW7.4 kmh SSW 6.9 mph11.1 kmh 29.88 in1011.9 mb - 0.00 in0.0 mm 0.00 in0.0 mm
06:45 AM 72.3°F22.4°C 68.2°F20.1°C 87% 3.5 mph S5.6 kmh S 5.8 mph9.3 kmh 29.88 in1011.9 mb - 0.00 in0.0 mm 0.00 in0.0 mm
06:40 AM 72.4°F22.4°C 68.3°F20.2°C 87% 4.6 mph SSW7.4 kmh SSW 6.9 mph11.1 kmh 29.88 in1011.9 mb - 0.00 in0.0 mm 0.00 in0.0 mm
06:30 AM 72.6°F22.6°C 68.5°F20.3°C 87% 3.5 mph S5.6 kmh S 9.2 mph14.8 kmh 29.88 in1011.9 mb - 0.00 in0.0 mm 0.00 in0.0 mm
06:20 AM 72.8°F22.7°C 68.4°F20.2°C 86% 4.6 mph S7.4 kmh S 6.9 mph11.1 kmh 29.87 in1011.5 mb - 0.00 in0.0 mm 0.00 in0.0 mm
06:15 AM 73.0°F22.8°C 68.6°F20.3°C 86% 4.6 mph S7.4 kmh S 5.8 mph9.3 kmh 29.87 in1011.5 mb - 0.00 in0.0 mm 0.00 in0.0 mm
06:10 AM 73.1°F22.8°C 68.7°F20.4°C 86% 3.5 mph S5.6 kmh S 6.9 mph11.1 kmh 29.88 in1011.9 mb - 0.00 in0.0 mm 0.00 in0.0 mm
06:00 AM 73.3°F22.9°C 68.5°F20.3°C 85% 3.5 mph S5.6 kmh S 5.8 mph9.3 kmh 29.87 in1011.5 mb - 0.00 in0.0 mm 0.00 in0.0 mm
05:50 AM 73.5°F23.1°C 68.7°F20.4°C 85% 3.5 mph S5.6 kmh S 5.8 mph9.3 kmh 29.87 in1011.5 mb - 0.00 in0.0 mm 0.00 in0.0 mm
05:45 AM 73.6°F23.1°C 68.5°F20.3°C 84% 1.2 mph S1.9 kmh S 4.6 mph7.4 kmh 29.87 in1011.5 mb - 0.00 in0.0 mm 0.00 in0.0 mm
05:40 AM 73.7°F23.2°C 68.6°F20.3°C 84% 4.6 mph S7.4 kmh S 5.8 mph9.3 kmh 29.86 in1011.2 mb - 0.00 in0.0 mm 0.00 in0.0 mm
05:30 AM 73.9°F23.3°C 68.8°F20.4°C 84% 3.5 mph S5.6 kmh S 9.2 mph14.8 kmh 29.86 in1011.2 mb - 0.00 in0.0 mm 0.00 in0.0 mm
05:20 AM 74.0°F23.3°C 68.9°F20.5°C 84% 4.6 mph S7.4 kmh S 6.9 mph11.1 kmh 29.86 in1011.2 mb - 0.00 in0.0 mm 0.00 in0.0 mm
05:15 AM 74.1°F23.4°C 69.0°F20.6°C 84% 5.8 mph S9.3 kmh S 8.1 mph13.0 kmh 29.86 in1011.2 mb - 0.00 in0.0 mm 0.00 in0.0 mm
05:10 AM 74.2°F23.4°C 69.0°F20.6°C 84% 8.1 mph S13.0 kmh S 11.5 mph18.5 kmh 29.86 in1011.2 mb - 0.00 in0.0 mm 0.00 in0.0 mm
05:00 AM 74.3°F23.5°C 68.8°F20.4°C 83% 4.6 mph SSW7.4 kmh SSW 8.1 mph13.0 kmh 29.86 in1011.2 mb - 0.00 in0.0 mm 0.00 in0.0 mm
04:50 AM 74.5°F23.6°C 69.0°F20.6°C 83% 4.6 mph SSW7.4 kmh SSW 8.1 mph13.0 kmh 29.86 in1011.2 mb - 0.00 in0.0 mm 0.00 in0.0 mm
04:45 AM 74.5°F23.6°C 69.0°F20.6°C 83% 4.6 mph S7.4 kmh S 8.1 mph13.0 kmh 29.86 in1011.2 mb - 0.00 in0.0 mm 0.00 in0.0 mm
04:40 AM 74.5°F23.6°C 69.0°F20.6°C 83% 5.8 mph S9.3 kmh S 8.1 mph13.0 kmh 29.86 in1011.2 mb - 0.00 in0.0 mm 0.00 in0.0 mm
04:30 AM 74.7°F23.7°C 69.2°F20.7°C 83% 5.8 mph SSW9.3 kmh SSW 6.9 mph11.1 kmh 29.86 in1011.2 mb - 0.00 in0.0 mm 0.00 in0.0 mm
04:20 AM 75.0°F23.9°C 69.1°F20.6°C 82% 4.6 mph S7.4 kmh S 8.1 mph13.0 kmh 29.87 in1011.5 mb - 0.00 in0.0 mm 0.00 in0.0 mm
04:15 AM 75.1°F23.9°C 69.2°F20.7°C 82% 2.3 mph S3.7 kmh S 5.8 mph9.3 kmh 29.86 in1011.2 mb - 0.00 in0.0 mm 0.00 in0.0 mm
04:10 AM 75.2°F24.0°C 69.3°F20.7°C 82% 4.6 mph SSW7.4 kmh SSW 9.2 mph14.8 kmh 29.86 in1011.2 mb - 0.00 in0.0 mm 0.00 in0.0 mm
04:00 AM 75.4°F24.1°C 69.5°F20.8°C 82% 4.6 mph S7.4 kmh S 8.1 mph13.0 kmh 29.86 in1011.2 mb - 0.00 in0.0 mm 0.00 in0.0 mm
03:50 AM 75.6°F24.2°C 69.4°F20.8°C 81% 4.6 mph SSW7.4 kmh SSW 5.8 mph9.3 kmh 29.86 in1011.2 mb - 0.00 in0.0 mm 0.00 in0.0 mm
03:45 AM 75.7°F24.3°C 69.5°F20.8°C 81% 3.5 mph S5.6 kmh S 4.6 mph7.4 kmh 29.86 in1011.2 mb - 0.00 in0.0 mm 0.00 in0.0 mm
03:40 AM 75.8°F24.3°C 69.6°F20.9°C 81% 4.6 mph SSW7.4 kmh SSW 6.9 mph11.1 kmh 29.86 in1011.2 mb - 0.00 in0.0 mm 0.00 in0.0 mm
03:30 AM 76.1°F24.5°C 69.5°F20.8°C 80% 4.6 mph SSW7.4 kmh SSW 8.1 mph13.0 kmh 29.86 in1011.2 mb - 0.00 in0.0 mm 0.00 in0.0 mm
03:20 AM 76.3°F24.6°C 69.7°F20.9°C 80% 4.6 mph SSW7.4 kmh SSW 8.1 mph13.0 kmh 29.85 in1010.8 mb - 0.00 in0.0 mm 0.00 in0.0 mm
03:15 AM 76.4°F24.7°C 69.8°F21.0°C 80% 4.6 mph SSW7.4 kmh SSW 5.8 mph9.3 kmh 29.85 in1010.8 mb - 0.00 in0.0 mm 0.00 in0.0 mm
03:10 AM 76.4°F24.7°C 69.8°F21.0°C 80% 8.1 mph SSW13.0 kmh SSW 9.2 mph14.8 kmh 29.85 in1010.8 mb - 0.00 in0.0 mm 0.00 in0.0 mm
03:00 AM 76.5°F24.7°C 69.9°F21.1°C 80% 10.4 mph S16.7 kmh S 12.7 mph20.4 kmh 29.85 in1010.8 mb - 0.00 in0.0 mm 0.00 in0.0 mm
02:50 AM 76.6°F24.8°C 70.0°F21.1°C 80% 5.8 mph SSW9.3 kmh SSW 10.4 mph16.7 kmh 29.84 in1010.5 mb - 0.00 in0.0 mm 0.00 in0.0 mm
02:45 AM 76.7°F24.8°C 70.1°F21.2°C 80% 4.6 mph SSW7.4 kmh SSW 6.9 mph11.1 kmh 29.85 in1010.8 mb - 0.00 in0.0 mm 0.00 in0.0 mm
02:40 AM 76.9°F24.9°C 70.3°F21.3°C 80% 6.9 mph SSW11.1 kmh SSW 8.1 mph13.0 kmh 29.85 in1010.8 mb - 0.00 in0.0 mm 0.00 in0.0 mm
02:30 AM 77.1°F25.1°C 70.4°F21.3°C 80% 4.6 mph SW7.4 kmh SW 8.1 mph13.0 kmh 29.85 in1010.8 mb - 0.00 in0.0 mm 0.00 in0.0 mm
02:20 AM 77.3°F25.2°C 70.3°F21.3°C 79% 5.8 mph SW9.3 kmh SW 10.4 mph16.7 kmh 29.84 in1010.5 mb - 0.00 in0.0 mm 0.00 in0.0 mm
02:15 AM 77.4°F25.2°C 70.3°F21.3°C 79% 6.9 mph SW11.1 kmh SW 9.2 mph14.8 kmh 29.84 in1010.5 mb - 0.00 in0.0 mm 0.00 in0.0 mm
02:10 AM 77.4°F25.2°C 70.4°F21.3°C 79% 6.9 mph SSW11.1 kmh SSW 10.4 mph16.7 kmh 29.84 in1010.5 mb - 0.00 in0.0 mm 0.00 in0.0 mm
02:00 AM 77.3°F25.2°C 70.6°F21.4°C 80% 10.4 mph SSW16.7 kmh SSW 11.5 mph18.5 kmh 29.84 in1010.5 mb - 0.00 in0.0 mm 0.00 in0.0 mm
01:50 AM 77.1°F25.1°C 70.8°F21.6°C 81% 10.4 mph SSW16.7 kmh SSW 12.7 mph20.4 kmh 29.85 in1010.8 mb - 0.00 in0.0 mm 0.00 in0.0 mm
01:45 AM 77.0°F25.0°C 71.1°F21.7°C 82% 8.1 mph SSW13.0 kmh SSW 12.7 mph20.4 kmh 29.85 in1010.8 mb - 0.00 in0.0 mm 0.00 in0.0 mm
01:40 AM 77.0°F25.0°C 71.1°F21.7°C 82% 9.2 mph SSW14.8 kmh SSW 11.5 mph18.5 kmh 29.85 in1010.8 mb - 0.00 in0.0 mm 0.00 in0.0 mm
01:30 AM 77.3°F25.2°C 71.7°F22.1°C 83% 4.6 mph SW7.4 kmh SW 5.8 mph9.3 kmh 29.85 in1010.8 mb - 0.00 in0.0 mm 0.00 in0.0 mm
01:20 AM 77.5°F25.3°C 71.9°F22.2°C 83% 4.6 mph S7.4 kmh S 11.5 mph18.5 kmh 29.86 in1011.2 mb - 0.00 in0.0 mm 0.00 in0.0 mm
01:15 AM 77.6°F25.3°C 72.0°F22.2°C 83% 6.9 mph S11.1 kmh S 11.5 mph18.5 kmh 29.86 in1011.2 mb - 0.00 in0.0 mm 0.00 in0.0 mm
01:10 AM 77.6°F25.3°C 72.0°F22.2°C 83% 6.9 mph S11.1 kmh S 11.5 mph18.5 kmh 29.86 in1011.2 mb - 0.00 in0.0 mm 0.00 in0.0 mm
01:00 AM 77.9°F25.5°C 72.0°F22.2°C 82% 5.8 mph S9.3 kmh S 13.8 mph22.2 kmh 29.86 in1011.2 mb - 0.00 in0.0 mm 0.00 in0.0 mm
12:50 AM 78.2°F25.7°C 72.3°F22.4°C 82% 6.9 mph S11.1 kmh S 13.8 mph22.2 kmh 29.86 in1011.2 mb - 0.00 in0.0 mm 0.00 in0.0 mm
12:45 AM 78.4°F25.8°C 72.4°F22.4°C 82% 5.8 mph S9.3 kmh S 8.1 mph13.0 kmh 29.86 in1011.2 mb - 0.00 in0.0 mm 0.00 in0.0 mm
12:40 AM 78.5°F25.8°C 72.2°F22.3°C 81% 9.2 mph S14.8 kmh S 10.4 mph16.7 kmh 29.87 in1011.5 mb - 0.00 in0.0 mm 0.00 in0.0 mm
12:30 AM 78.7°F25.9°C 72.4°F22.4°C 81% 4.6 mph S7.4 kmh S 10.4 mph16.7 kmh 29.86 in1011.2 mb - 0.00 in0.0 mm 0.00 in0.0 mm
12:20 AM 78.9°F26.1°C 72.2°F22.3°C 80% 5.8 mph S9.3 kmh S 9.2 mph14.8 kmh 29.87 in1011.5 mb - 0.00 in0.0 mm 0.00 in0.0 mm
12:15 AM 78.9°F26.1°C 72.6°F22.6°C 81% 9.2 mph SSE14.8 kmh SSE 15.0 mph24.1 kmh 29.87 in1011.5 mb - 0.00 in0.0 mm 0.00 in0.0 mm
12:00 AM 79.2°F26.2°C 72.9°F22.7°C 81% 5.8 mph S9.3 kmh S 11.5 mph18.5 kmh 29.87 in1011.5 mb - 0.00 in0.0 mm 0.00 in0.0 mm